sensor_id;sensor_type;location;lat;lon;timestamp;P1;durP1;ratioP1;P2;durP2;ratioP2
26806;SDS011;14380;49.910;6.792;2022-09-09T00:02:08;3.28;;;1.00;;
26806;SDS011;14380;49.910;6.792;2022-09-09T00:04:42;2.55;;;0.90;;
26806;SDS011;14380;49.910;6.792;2022-09-09T00:07:18;5.25;;;0.90;;
26806;SDS011;14380;49.910;6.792;2022-09-09T00:09:53;3.28;;;0.95;;
26806;SDS011;14380;49.910;6.792;2022-09-09T00:12:33;3.30;;;0.90;;
26806;SDS011;14380;49.910;6.792;2022-09-09T00:15:07;1.92;;;0.90;;
26806;SDS011;14380;49.910;6.792;2022-09-09T00:17:42;6.05;;;0.80;;
26806;SDS011;14380;49.910;6.792;2022-09-09T00:20:14;4.22;;;0.68;;
26806;SDS011;14380;49.910;6.792;2022-09-09T00:22:52;5.90;;;0.90;;
26806;SDS011;14380;49.910;6.792;2022-09-09T00:25:27;5.18;;;1.10;;
26806;SDS011;14380;49.910;6.792;2022-09-09T00:28:00;4.15;;;0.90;;
26806;SDS011;14380;49.910;6.792;2022-09-09T00:30:28;4.85;;;1.23;;
26806;SDS011;14380;49.910;6.792;2022-09-09T00:33:03;4.65;;;0.82;;
26806;SDS011;14380;49.910;6.792;2022-09-09T00:35:41;10.10;;;1.05;;
26806;SDS011;14380;49.910;6.792;2022-09-09T00:38:12;6.68;;;1.02;;
26806;SDS011;14380;49.910;6.792;2022-09-09T00:40:41;4.38;;;1.08;;
26806;SDS011;14380;49.910;6.792;2022-09-09T00:43:25;5.63;;;0.82;;
26806;SDS011;14380;49.910;6.792;2022-09-09T00:49:10;7.78;;;1.10;;
26806;SDS011;14380;49.910;6.792;2022-09-09T00:51:45;4.63;;;0.90;;
26806;SDS011;14380;49.910;6.792;2022-09-09T00:54:27;8.13;;;1.02;;
26806;SDS011;14380;49.910;6.792;2022-09-09T00:57:10;7.43;;;1.23;;
26806;SDS011;14380;49.910;6.792;2022-09-09T00:59:46;3.15;;;0.85;;
26806;SDS011;14380;49.910;6.792;2022-09-09T01:02:18;6.28;;;0.95;;
26806;SDS011;14380;49.910;6.792;2022-09-09T01:04:54;4.18;;;1.00;;
26806;SDS011;14380;49.910;6.792;2022-09-09T01:07:27;7.65;;;1.38;;
26806;SDS011;14380;49.910;6.792;2022-09-09T01:09:58;10.10;;;1.30;;
26806;SDS011;14380;49.910;6.792;2022-09-09T01:12:34;8.23;;;1.73;;
26806;SDS011;14380;49.910;6.792;2022-09-09T01:15:10;7.07;;;1.17;;
26806;SDS011;14380;49.910;6.792;2022-09-09T01:17:46;7.35;;;1.25;;
26806;SDS011;14380;49.910;6.792;2022-09-09T01:20:19;4.75;;;1.33;;
26806;SDS011;14380;49.910;6.792;2022-09-09T01:22:55;5.18;;;1.35;;
26806;SDS011;14380;49.910;6.792;2022-09-09T01:28:30;6.45;;;1.60;;
26806;SDS011;14380;49.910;6.792;2022-09-09T01:31:02;8.52;;;1.70;;
26806;SDS011;14380;49.910;6.792;2022-09-09T01:33:30;16.42;;;1.92;;
26806;SDS011;14380;49.910;6.792;2022-09-09T01:35:57;8.98;;;1.20;;
26806;SDS011;14380;49.910;6.792;2022-09-09T01:38:30;5.68;;;1.02;;
26806;SDS011;14380;49.910;6.792;2022-09-09T01:41:00;7.05;;;1.05;;
26806;SDS011;14380;49.910;6.792;2022-09-09T01:43:27;6.47;;;1.20;;
26806;SDS011;14380;49.910;6.792;2022-09-09T01:45:55;4.03;;;1.23;;
26806;SDS011;14380;49.910;6.792;2022-09-09T01:48:25;5.80;;;1.63;;
26806;SDS011;14380;49.910;6.792;2022-09-09T01:50:52;5.75;;;1.20;;
26806;SDS011;14380;49.910;6.792;2022-09-09T01:53:19;5.10;;;1.35;;
26806;SDS011;14380;49.910;6.792;2022-09-09T01:55:49;7.30;;;1.15;;
26806;SDS011;14380;49.910;6.792;2022-09-09T01:58:28;5.50;;;1.20;;
26806;SDS011;14380;49.910;6.792;2022-09-09T02:01:06;7.13;;;1.00;;
26806;SDS011;14380;49.910;6.792;2022-09-09T02:03:40;7.93;;;1.60;;
26806;SDS011;14380;49.910;6.792;2022-09-09T02:06:14;9.90;;;1.25;;
26806;SDS011;14380;49.910;6.792;2022-09-09T02:09:07;4.85;;;1.40;;
26806;SDS011;14380;49.910;6.792;2022-09-09T02:11:38;8.00;;;2.08;;
26806;SDS011;14380;49.910;6.792;2022-09-09T02:14:10;4.53;;;1.20;;
26806;SDS011;14380;49.910;6.792;2022-09-09T02:16:44;5.80;;;1.42;;
26806;SDS011;14380;49.910;6.792;2022-09-09T02:19:18;3.83;;;0.93;;
26806;SDS011;14380;49.910;6.792;2022-09-09T02:21:50;11.05;;;1.45;;
26806;SDS011;14380;49.910;6.792;2022-09-09T02:24:20;5.55;;;1.15;;
26806;SDS011;14380;49.910;6.792;2022-09-09T02:26:49;12.20;;;1.60;;
26806;SDS011;14380;49.910;6.792;2022-09-09T02:29:22;7.38;;;1.30;;
26806;SDS011;14380;49.910;6.792;2022-09-09T02:31:51;6.55;;;1.38;;
26806;SDS011;14380;49.910;6.792;2022-09-09T02:34:20;7.18;;;0.95;;
26806;SDS011;14380;49.910;6.792;2022-09-09T02:36:49;9.15;;;1.05;;
26806;SDS011;14380;49.910;6.792;2022-09-09T02:39:19;4.43;;;1.10;;
26806;SDS011;14380;49.910;6.792;2022-09-09T02:41:46;9.95;;;1.48;;
26806;SDS011;14380;49.910;6.792;2022-09-09T02:44:13;5.78;;;0.93;;
26806;SDS011;14380;49.910;6.792;2022-09-09T02:46:47;5.40;;;1.08;;
26806;SDS011;14380;49.910;6.792;2022-09-09T02:49:31;5.53;;;1.20;;
26806;SDS011;14380;49.910;6.792;2022-09-09T02:52:07;9.77;;;1.67;;
26806;SDS011;14380;49.910;6.792;2022-09-09T02:54:41;10.10;;;1.70;;
26806;SDS011;14380;49.910;6.792;2022-09-09T02:57:10;4.53;;;1.15;;
26806;SDS011;14380;49.910;6.792;2022-09-09T02:59:38;8.40;;;1.30;;
26806;SDS011;14380;49.910;6.792;2022-09-09T03:02:06;10.80;;;1.50;;
26806;SDS011;14380;49.910;6.792;2022-09-09T03:04:36;4.07;;;1.02;;
26806;SDS011;14380;49.910;6.792;2022-09-09T03:07:03;7.95;;;1.13;;
26806;SDS011;14380;49.910;6.792;2022-09-09T03:09:29;7.80;;;1.20;;
26806;SDS011;14380;49.910;6.792;2022-09-09T03:11:57;7.93;;;1.38;;
26806;SDS011;14380;49.910;6.792;2022-09-09T03:14:25;8.02;;;1.30;;
26806;SDS011;14380;49.910;6.792;2022-09-09T03:16:52;8.95;;;1.67;;
26806;SDS011;14380;49.910;6.792;2022-09-09T03:19:20;10.02;;;1.30;;
26806;SDS011;14380;49.910;6.792;2022-09-09T03:21:47;6.35;;;1.17;;
26806;SDS011;14380;49.910;6.792;2022-09-09T03:24:14;5.38;;;0.82;;
26806;SDS011;14380;49.910;6.792;2022-09-09T03:26:41;6.45;;;1.10;;
26806;SDS011;14380;49.910;6.792;2022-09-09T03:29:09;8.73;;;1.30;;
26806;SDS011;14380;49.910;6.792;2022-09-09T03:31:37;9.30;;;1.33;;
26806;SDS011;14380;49.910;6.792;2022-09-09T03:34:04;4.00;;;1.10;;
26806;SDS011;14380;49.910;6.792;2022-09-09T03:36:32;9.35;;;1.33;;
26806;SDS011;14380;49.910;6.792;2022-09-09T03:38:59;8.80;;;1.38;;
26806;SDS011;14380;49.910;6.792;2022-09-09T03:41:26;7.65;;;1.20;;
26806;SDS011;14380;49.910;6.792;2022-09-09T03:43:53;4.03;;;1.40;;
26806;SDS011;14380;49.910;6.792;2022-09-09T03:46:20;5.72;;;0.85;;
26806;SDS011;14380;49.910;6.792;2022-09-09T03:48:49;5.13;;;1.10;;
26806;SDS011;14380;49.910;6.792;2022-09-09T03:51:17;6.65;;;1.10;;
26806;SDS011;14380;49.910;6.792;2022-09-09T03:53:45;5.88;;;1.10;;
26806;SDS011;14380;49.910;6.792;2022-09-09T03:56:12;14.18;;;1.60;;
26806;SDS011;14380;49.910;6.792;2022-09-09T03:58:38;4.35;;;1.10;;
26806;SDS011;14380;49.910;6.792;2022-09-09T04:01:06;7.50;;;1.30;;
26806;SDS011;14380;49.910;6.792;2022-09-09T04:03:34;7.03;;;1.42;;
26806;SDS011;14380;49.910;6.792;2022-09-09T04:06:02;4.78;;;1.13;;
26806;SDS011;14380;49.910;6.792;2022-09-09T04:08:34;8.10;;;1.25;;
26806;SDS011;14380;49.910;6.792;2022-09-09T04:11:04;6.22;;;1.50;;
26806;SDS011;14380;49.910;6.792;2022-09-09T04:13:31;4.03;;;1.10;;
26806;SDS011;14380;49.910;6.792;2022-09-09T04:15:59;6.57;;;1.60;;
26806;SDS011;14380;49.910;6.792;2022-09-09T04:18:28;11.35;;;1.63;;
26806;SDS011;14380;49.910;6.792;2022-09-09T04:20:55;3.97;;;1.13;;
26806;SDS011;14380;49.910;6.792;2022-09-09T04:23:23;8.07;;;1.42;;
26806;SDS011;14380;49.910;6.792;2022-09-09T04:25:50;5.95;;;1.50;;
26806;SDS011;14380;49.910;6.792;2022-09-09T04:28:20;6.82;;;1.13;;
26806;SDS011;14380;49.910;6.792;2022-09-09T04:30:48;10.63;;;1.80;;
26806;SDS011;14380;49.910;6.792;2022-09-09T04:33:15;9.75;;;1.90;;
26806;SDS011;14380;49.910;6.792;2022-09-09T04:35:43;6.88;;;1.88;;
26806;SDS011;14380;49.910;6.792;2022-09-09T04:38:11;6.95;;;1.35;;
26806;SDS011;14380;49.910;6.792;2022-09-09T04:40:38;6.38;;;1.25;;
26806;SDS011;14380;49.910;6.792;2022-09-09T04:43:08;7.25;;;1.60;;
26806;SDS011;14380;49.910;6.792;2022-09-09T04:45:36;8.05;;;1.70;;
26806;SDS011;14380;49.910;6.792;2022-09-09T04:48:05;9.07;;;1.83;;
26806;SDS011;14380;49.910;6.792;2022-09-09T04:50:32;8.75;;;1.98;;
26806;SDS011;14380;49.910;6.792;2022-09-09T04:52:59;10.32;;;1.77;;
26806;SDS011;14380;49.910;6.792;2022-09-09T04:55:27;9.07;;;1.92;;
26806;SDS011;14380;49.910;6.792;2022-09-09T04:57:53;13.23;;;1.83;;
26806;SDS011;14380;49.910;6.792;2022-09-09T05:00:20;10.38;;;1.95;;
26806;SDS011;14380;49.910;6.792;2022-09-09T05:02:48;12.25;;;1.50;;
26806;SDS011;14380;49.910;6.792;2022-09-09T05:05:15;9.45;;;1.73;;
26806;SDS011;14380;49.910;6.792;2022-09-09T05:07:41;9.07;;;1.60;;
26806;SDS011;14380;49.910;6.792;2022-09-09T05:10:08;14.48;;;2.60;;
26806;SDS011;14380;49.910;6.792;2022-09-09T05:12:35;8.15;;;1.40;;
26806;SDS011;14380;49.910;6.792;2022-09-09T05:15:02;11.82;;;1.73;;
26806;SDS011;14380;49.910;6.792;2022-09-09T05:17:29;6.50;;;1.95;;
26806;SDS011;14380;49.910;6.792;2022-09-09T05:19:57;13.88;;;2.20;;
26806;SDS011;14380;49.910;6.792;2022-09-09T05:22:24;14.27;;;1.38;;
26806;SDS011;14380;49.910;6.792;2022-09-09T05:24:51;10.18;;;2.22;;
26806;SDS011;14380;49.910;6.792;2022-09-09T05:27:18;8.57;;;1.25;;
26806;SDS011;14380;49.910;6.792;2022-09-09T05:29:45;9.63;;;2.00;;
26806;SDS011;14380;49.910;6.792;2022-09-09T05:32:13;8.55;;;1.80;;
26806;SDS011;14380;49.910;6.792;2022-09-09T05:34:40;11.00;;;1.60;;
26806;SDS011;14380;49.910;6.792;2022-09-09T05:37:08;8.82;;;1.48;;
26806;SDS011;14380;49.910;6.792;2022-09-09T05:39:35;12.93;;;1.70;;
26806;SDS011;14380;49.910;6.792;2022-09-09T05:42:03;9.45;;;1.65;;
26806;SDS011;14380;49.910;6.792;2022-09-09T05:44:30;6.57;;;1.73;;
26806;SDS011;14380;49.910;6.792;2022-09-09T05:46:57;10.88;;;1.50;;
26806;SDS011;14380;49.910;6.792;2022-09-09T05:49:23;13.05;;;1.92;;
26806;SDS011;14380;49.910;6.792;2022-09-09T05:51:50;14.32;;;1.70;;
26806;SDS011;14380;49.910;6.792;2022-09-09T05:54:19;12.15;;;2.10;;
26806;SDS011;14380;49.910;6.792;2022-09-09T05:56:46;10.50;;;1.60;;
26806;SDS011;14380;49.910;6.792;2022-09-09T05:59:14;11.98;;;1.75;;
26806;SDS011;14380;49.910;6.792;2022-09-09T06:01:41;13.05;;;1.58;;
26806;SDS011;14380;49.910;6.792;2022-09-09T06:04:08;7.50;;;1.48;;
26806;SDS011;14380;49.910;6.792;2022-09-09T06:06:35;9.02;;;1.50;;
26806;SDS011;14380;49.910;6.792;2022-09-09T06:09:04;12.73;;;1.67;;
26806;SDS011;14380;49.910;6.792;2022-09-09T06:11:36;15.20;;;2.25;;
26806;SDS011;14380;49.910;6.792;2022-09-09T06:14:04;6.88;;;1.65;;
26806;SDS011;14380;49.910;6.792;2022-09-09T06:16:33;11.95;;;1.90;;
26806;SDS011;14380;49.910;6.792;2022-09-09T06:19:00;9.45;;;1.60;;
26806;SDS011;14380;49.910;6.792;2022-09-09T06:21:28;14.00;;;1.48;;
26806;SDS011;14380;49.910;6.792;2022-09-09T06:23:56;8.60;;;1.50;;
26806;SDS011;14380;49.910;6.792;2022-09-09T06:26:23;8.48;;;1.40;;
26806;SDS011;14380;49.910;6.792;2022-09-09T06:28:53;9.15;;;1.67;;
26806;SDS011;14380;49.910;6.792;2022-09-09T06:31:22;10.65;;;1.88;;
26806;SDS011;14380;49.910;6.792;2022-09-09T06:33:51;10.68;;;1.50;;
26806;SDS011;14380;49.910;6.792;2022-09-09T06:36:21;10.45;;;1.73;;
26806;SDS011;14380;49.910;6.792;2022-09-09T06:38:48;10.70;;;2.03;;
26806;SDS011;14380;49.910;6.792;2022-09-09T06:41:16;6.85;;;1.95;;
26806;SDS011;14380;49.910;6.792;2022-09-09T06:43:44;6.22;;;1.38;;
26806;SDS011;14380;49.910;6.792;2022-09-09T06:46:13;10.48;;;1.88;;
26806;SDS011;14380;49.910;6.792;2022-09-09T06:48:41;11.50;;;1.52;;
26806;SDS011;14380;49.910;6.792;2022-09-09T06:51:08;11.85;;;1.95;;
26806;SDS011;14380;49.910;6.792;2022-09-09T06:53:38;10.75;;;1.90;;
26806;SDS011;14380;49.910;6.792;2022-09-09T06:56:17;8.85;;;1.67;;
26806;SDS011;14380;49.910;6.792;2022-09-09T06:58:45;8.43;;;1.70;;
26806;SDS011;14380;49.910;6.792;2022-09-09T07:01:15;10.93;;;2.38;;
26806;SDS011;14380;49.910;6.792;2022-09-09T07:03:45;12.10;;;1.52;;
26806;SDS011;14380;49.910;6.792;2022-09-09T07:06:13;9.98;;;1.52;;
26806;SDS011;14380;49.910;6.792;2022-09-09T07:08:42;11.90;;;1.98;;
26806;SDS011;14380;49.910;6.792;2022-09-09T07:11:08;14.73;;;1.35;;
26806;SDS011;14380;49.910;6.792;2022-09-09T07:13:36;12.93;;;1.45;;
26806;SDS011;14380;49.910;6.792;2022-09-09T07:16:03;11.73;;;1.83;;
26806;SDS011;14380;49.910;6.792;2022-09-09T07:18:32;11.18;;;1.65;;
26806;SDS011;14380;49.910;6.792;2022-09-09T07:20:59;9.23;;;1.50;;
26806;SDS011;14380;49.910;6.792;2022-09-09T07:23:27;11.90;;;1.90;;
26806;SDS011;14380;49.910;6.792;2022-09-09T07:25:54;8.35;;;1.63;;
26806;SDS011;14380;49.910;6.792;2022-09-09T07:28:20;7.88;;;1.52;;
26806;SDS011;14380;49.910;6.792;2022-09-09T07:30:52;10.63;;;1.60;;
26806;SDS011;14380;49.910;6.792;2022-09-09T07:33:20;10.60;;;1.60;;
26806;SDS011;14380;49.910;6.792;2022-09-09T07:35:48;11.43;;;2.15;;
26806;SDS011;14380;49.910;6.792;2022-09-09T07:38:15;14.35;;;1.88;;
26806;SDS011;14380;49.910;6.792;2022-09-09T07:40:42;8.05;;;1.30;;
26806;SDS011;14380;49.910;6.792;2022-09-09T07:43:09;9.32;;;1.63;;
26806;SDS011;14380;49.910;6.792;2022-09-09T07:45:35;11.77;;;1.85;;
26806;SDS011;14380;49.910;6.792;2022-09-09T07:48:03;10.52;;;1.70;;
26806;SDS011;14380;49.910;6.792;2022-09-09T07:50:30;10.50;;;1.25;;
26806;SDS011;14380;49.910;6.792;2022-09-09T07:52:58;7.68;;;1.42;;
26806;SDS011;14380;49.910;6.792;2022-09-09T07:55:25;8.40;;;1.52;;
26806;SDS011;14380;49.910;6.792;2022-09-09T07:57:53;10.10;;;1.60;;
26806;SDS011;14380;49.910;6.792;2022-09-09T08:00:19;8.50;;;1.50;;
26806;SDS011;14380;49.910;6.792;2022-09-09T08:02:47;13.68;;;2.47;;
26806;SDS011;14380;49.910;6.792;2022-09-09T08:05:14;8.05;;;1.58;;
26806;SDS011;14380;49.910;6.792;2022-09-09T08:07:41;8.07;;;1.30;;
26806;SDS011;14380;49.910;6.792;2022-09-09T08:10:10;9.60;;;1.55;;
26806;SDS011;14380;49.910;6.792;2022-09-09T08:12:39;8.35;;;1.75;;
26806;SDS011;14380;49.910;6.792;2022-09-09T08:15:07;9.95;;;1.63;;
26806;SDS011;14380;49.910;6.792;2022-09-09T08:17:34;6.43;;;1.58;;
26806;SDS011;14380;49.910;6.792;2022-09-09T08:20:03;6.40;;;1.30;;
26806;SDS011;14380;49.910;6.792;2022-09-09T08:22:31;7.93;;;1.35;;
26806;SDS011;14380;49.910;6.792;2022-09-09T08:24:59;10.75;;;1.60;;
26806;SDS011;14380;49.910;6.792;2022-09-09T08:27:28;10.68;;;1.40;;
26806;SDS011;14380;49.910;6.792;2022-09-09T08:29:55;9.98;;;1.30;;
26806;SDS011;14380;49.910;6.792;2022-09-09T08:32:21;7.88;;;1.40;;
26806;SDS011;14380;49.910;6.792;2022-09-09T08:34:48;9.38;;;1.70;;
26806;SDS011;14380;49.910;6.792;2022-09-09T08:37:16;7.90;;;1.30;;
26806;SDS011;14380;49.910;6.792;2022-09-09T08:39:42;6.43;;;1.30;;
26806;SDS011;14380;49.910;6.792;2022-09-09T08:45:14;11.57;;;1.60;;
26806;SDS011;14380;49.910;6.792;2022-09-09T08:47:50;14.77;;;1.60;;
26806;SDS011;14380;49.910;6.792;2022-09-09T08:50:26;8.52;;;1.50;;
26806;SDS011;14380;49.910;6.792;2022-09-09T08:52:57;10.23;;;1.63;;
26806;SDS011;14380;49.910;6.792;2022-09-09T08:55:31;9.93;;;1.80;;
26806;SDS011;14380;49.910;6.792;2022-09-09T09:00:37;9.40;;;1.45;;
26806;SDS011;14380;49.910;6.792;2022-09-09T09:03:13;9.07;;;1.55;;
26806;SDS011;14380;49.910;6.792;2022-09-09T09:05:51;10.15;;;1.73;;
26806;SDS011;14380;49.910;6.792;2022-09-09T09:08:28;8.13;;;1.42;;
26806;SDS011;14380;49.910;6.792;2022-09-09T09:11:03;10.87;;;1.50;;
26806;SDS011;14380;49.910;6.792;2022-09-09T09:13:33;9.88;;;1.70;;
26806;SDS011;14380;49.910;6.792;2022-09-09T09:16:06;10.80;;;1.70;;
26806;SDS011;14380;49.910;6.792;2022-09-09T09:18:43;11.98;;;1.42;;
26806;SDS011;14380;49.910;6.792;2022-09-09T09:21:12;9.18;;;1.50;;
26806;SDS011;14380;49.910;6.792;2022-09-09T09:23:45;12.20;;;2.28;;
26806;SDS011;14380;49.910;6.792;2022-09-09T09:28:49;11.32;;;1.85;;
26806;SDS011;14380;49.910;6.792;2022-09-09T09:31:18;11.63;;;2.50;;
26806;SDS011;14380;49.910;6.792;2022-09-09T09:33:47;7.95;;;2.00;;
26806;SDS011;14380;49.910;6.792;2022-09-09T09:36:16;14.20;;;2.72;;
26806;SDS011;14380;49.910;6.792;2022-09-09T09:38:52;14.55;;;1.90;;
26806;SDS011;14380;49.910;6.792;2022-09-09T09:41:33;10.25;;;2.05;;
26806;SDS011;14380;49.910;6.792;2022-09-09T09:44:03;10.77;;;1.73;;
26806;SDS011;14380;49.910;6.792;2022-09-09T09:46:31;14.40;;;2.17;;
26806;SDS011;14380;49.910;6.792;2022-09-09T09:48:59;8.93;;;2.08;;
26806;SDS011;14380;49.910;6.792;2022-09-09T09:51:26;9.00;;;1.65;;
26806;SDS011;14380;49.910;6.792;2022-09-09T09:54:01;7.15;;;2.15;;
26806;SDS011;14380;49.910;6.792;2022-09-09T09:56:34;11.57;;;1.85;;
26806;SDS011;14380;49.910;6.792;2022-09-09T09:59:03;9.00;;;1.70;;
26806;SDS011;14380;49.910;6.792;2022-09-09T10:01:31;9.45;;;1.70;;
26806;SDS011;14380;49.910;6.792;2022-09-09T10:04:00;11.10;;;1.83;;
26806;SDS011;14380;49.910;6.792;2022-09-09T10:06:32;11.40;;;1.67;;
26806;SDS011;14380;49.910;6.792;2022-09-09T10:09:00;11.50;;;2.15;;
26806;SDS011;14380;49.910;6.792;2022-09-09T10:11:35;10.68;;;1.60;;
26806;SDS011;14380;49.910;6.792;2022-09-09T10:14:16;12.90;;;1.92;;
26806;SDS011;14380;49.910;6.792;2022-09-09T10:16:50;12.65;;;2.30;;
26806;SDS011;14380;49.910;6.792;2022-09-09T10:19:29;9.77;;;1.60;;
26806;SDS011;14380;49.910;6.792;2022-09-09T10:22:06;7.93;;;1.65;;
26806;SDS011;14380;49.910;6.792;2022-09-09T10:24:56;11.57;;;1.90;;
26806;SDS011;14380;49.910;6.792;2022-09-09T10:27:36;8.85;;;1.55;;
26806;SDS011;14380;49.910;6.792;2022-09-09T10:30:12;10.98;;;1.75;;
26806;SDS011;14380;49.910;6.792;2022-09-09T10:32:48;10.98;;;1.65;;
26806;SDS011;14380;49.910;6.792;2022-09-09T10:35:27;10.57;;;1.35;;
26806;SDS011;14380;49.910;6.792;2022-09-09T10:40:58;9.05;;;1.42;;
26806;SDS011;14380;49.910;6.792;2022-09-09T10:43:39;8.73;;;2.03;;
26806;SDS011;14380;49.910;6.792;2022-09-09T10:46:20;10.15;;;1.38;;
26806;SDS011;14380;49.910;6.792;2022-09-09T10:48:58;7.88;;;1.63;;
26806;SDS011;14380;49.910;6.792;2022-09-09T10:51:39;7.68;;;1.10;;
26806;SDS011;14380;49.910;6.792;2022-09-09T10:54:16;6.88;;;1.17;;
26806;SDS011;14380;49.910;6.792;2022-09-09T10:56:55;9.15;;;1.08;;
26806;SDS011;14380;49.910;6.792;2022-09-09T10:59:26;4.72;;;1.10;;
26806;SDS011;14380;49.910;6.792;2022-09-09T11:01:59;5.50;;;1.10;;
26806;SDS011;14380;49.910;6.792;2022-09-09T11:04:33;6.25;;;1.15;;
26806;SDS011;14380;49.910;6.792;2022-09-09T11:07:06;7.78;;;1.30;;
26806;SDS011;14380;49.910;6.792;2022-09-09T11:09:36;9.13;;;1.20;;
26806;SDS011;14380;49.910;6.792;2022-09-09T11:12:06;5.25;;;1.20;;
26806;SDS011;14380;49.910;6.792;2022-09-09T11:14:40;3.80;;;0.82;;
26806;SDS011;14380;49.910;6.792;2022-09-09T11:17:14;7.78;;;1.15;;
26806;SDS011;14380;49.910;6.792;2022-09-09T11:19:43;4.80;;;1.00;;
26806;SDS011;14380;49.910;6.792;2022-09-09T11:22:15;6.15;;;1.00;;
26806;SDS011;14380;49.910;6.792;2022-09-09T11:24:51;6.68;;;0.73;;
26806;SDS011;14380;49.910;6.792;2022-09-09T11:27:23;8.77;;;1.02;;
26806;SDS011;14380;49.910;6.792;2022-09-09T11:35:47;5.72;;;0.90;;
26806;SDS011;14380;49.910;6.792;2022-09-09T11:38:27;2.55;;;0.85;;
26806;SDS011;14380;49.910;6.792;2022-09-09T11:40:56;3.67;;;0.82;;
26806;SDS011;14380;49.910;6.792;2022-09-09T11:43:27;7.13;;;1.38;;
26806;SDS011;14380;49.910;6.792;2022-09-09T11:45:57;7.72;;;1.83;;
26806;SDS011;14380;49.910;6.792;2022-09-09T11:48:38;6.40;;;1.10;;
26806;SDS011;14380;49.910;6.792;2022-09-09T11:51:09;6.95;;;0.90;;
26806;SDS011;14380;49.910;6.792;2022-09-09T11:53:47;5.55;;;1.05;;
26806;SDS011;14380;49.910;6.792;2022-09-09T11:56:22;5.20;;;1.15;;
26806;SDS011;14380;49.910;6.792;2022-09-09T11:58:59;9.07;;;0.90;;
26806;SDS011;14380;49.910;6.792;2022-09-09T12:04:13;6.10;;;1.20;;
26806;SDS011;14380;49.910;6.792;2022-09-09T12:06:45;7.53;;;1.15;;
26806;SDS011;14380;49.910;6.792;2022-09-09T12:09:18;4.57;;;0.77;;
26806;SDS011;14380;49.910;6.792;2022-09-09T12:11:51;3.40;;;0.77;;
26806;SDS011;14380;49.910;6.792;2022-09-09T12:14:22;4.55;;;0.90;;
26806;SDS011;14380;49.910;6.792;2022-09-09T12:17:08;4.93;;;1.13;;
26806;SDS011;14380;49.910;6.792;2022-09-09T12:19:37;4.00;;;0.80;;
26806;SDS011;14380;49.910;6.792;2022-09-09T12:22:05;3.78;;;0.80;;
26806;SDS011;14380;49.910;6.792;2022-09-09T12:24:41;4.25;;;0.90;;
26806;SDS011;14380;49.910;6.792;2022-09-09T12:27:14;3.78;;;0.73;;
26806;SDS011;14380;49.910;6.792;2022-09-09T12:29:48;5.03;;;0.70;;
26806;SDS011;14380;49.910;6.792;2022-09-09T12:32:22;3.80;;;0.60;;
26806;SDS011;14380;49.910;6.792;2022-09-09T12:34:53;3.95;;;0.65;;
26806;SDS011;14380;49.910;6.792;2022-09-09T12:37:25;2.80;;;0.57;;
26806;SDS011;14380;49.910;6.792;2022-09-09T12:39:55;4.40;;;0.85;;
26806;SDS011;14380;49.910;6.792;2022-09-09T12:42:24;2.10;;;0.45;;
26806;SDS011;14380;49.910;6.792;2022-09-09T12:44:55;3.35;;;0.50;;
26806;SDS011;14380;49.910;6.792;2022-09-09T12:47:25;1.65;;;0.40;;
26806;SDS011;14380;49.910;6.792;2022-09-09T12:49:58;6.90;;;0.80;;
26806;SDS011;14380;49.910;6.792;2022-09-09T12:52:26;8.60;;;1.00;;
26806;SDS011;14380;49.910;6.792;2022-09-09T12:54:56;4.28;;;0.40;;
26806;SDS011;14380;49.910;6.792;2022-09-09T12:57:25;2.78;;;0.50;;
26806;SDS011;14380;49.910;6.792;2022-09-09T13:00:05;5.97;;;0.80;;
26806;SDS011;14380;49.910;6.792;2022-09-09T13:02:36;3.13;;;0.68;;
26806;SDS011;14380;49.910;6.792;2022-09-09T13:05:15;2.28;;;0.68;;
26806;SDS011;14380;49.910;6.792;2022-09-09T13:07:43;3.42;;;0.38;;
26806;SDS011;14380;49.910;6.792;2022-09-09T13:10:11;2.15;;;0.50;;
26806;SDS011;14380;49.910;6.792;2022-09-09T13:12:41;3.55;;;0.70;;
26806;SDS011;14380;49.910;6.792;2022-09-09T13:15:11;3.00;;;0.70;;
26806;SDS011;14380;49.910;6.792;2022-09-09T13:17:52;2.42;;;0.40;;
26806;SDS011;14380;49.910;6.792;2022-09-09T13:20:22;3.63;;;0.95;;
26806;SDS011;14380;49.910;6.792;2022-09-09T13:22:50;5.32;;;1.00;;
26806;SDS011;14380;49.910;6.792;2022-09-09T13:25:23;7.13;;;1.17;;
26806;SDS011;14380;49.910;6.792;2022-09-09T13:27:52;5.43;;;0.82;;
26806;SDS011;14380;49.910;6.792;2022-09-09T13:30:22;5.88;;;1.23;;
26806;SDS011;14380;49.910;6.792;2022-09-09T13:33:04;4.80;;;1.35;;
26806;SDS011;14380;49.910;6.792;2022-09-09T13:35:47;10.82;;;1.88;;
26806;SDS011;14380;49.910;6.792;2022-09-09T13:38:16;4.80;;;1.05;;
26806;SDS011;14380;49.910;6.792;2022-09-09T13:40:51;6.72;;;1.17;;
26806;SDS011;14380;49.910;6.792;2022-09-09T13:43:21;6.63;;;1.52;;
26806;SDS011;14380;49.910;6.792;2022-09-09T13:45:52;7.30;;;1.10;;
26806;SDS011;14380;49.910;6.792;2022-09-09T13:48:21;8.90;;;1.23;;
26806;SDS011;14380;49.910;6.792;2022-09-09T13:50:54;2.85;;;0.82;;
26806;SDS011;14380;49.910;6.792;2022-09-09T13:53:22;7.05;;;1.27;;
26806;SDS011;14380;49.910;6.792;2022-09-09T13:55:49;8.07;;;1.50;;
26806;SDS011;14380;49.910;6.792;2022-09-09T13:58:17;5.85;;;1.08;;
26806;SDS011;14380;49.910;6.792;2022-09-09T14:00:44;5.72;;;1.30;;
26806;SDS011;14380;49.910;6.792;2022-09-09T14:03:11;4.55;;;1.10;;
26806;SDS011;14380;49.910;6.792;2022-09-09T14:05:38;5.65;;;1.08;;
26806;SDS011;14380;49.910;6.792;2022-09-09T14:08:07;6.75;;;1.65;;
26806;SDS011;14380;49.910;6.792;2022-09-09T14:10:38;8.15;;;1.40;;
26806;SDS011;14380;49.910;6.792;2022-09-09T14:13:05;2.42;;;0.80;;
26806;SDS011;14380;49.910;6.792;2022-09-09T14:15:33;5.88;;;0.75;;
26806;SDS011;14380;49.910;6.792;2022-09-09T14:17:59;3.92;;;0.95;;
26806;SDS011;14380;49.910;6.792;2022-09-09T14:20:27;5.18;;;1.00;;
26806;SDS011;14380;49.910;6.792;2022-09-09T14:22:53;7.80;;;1.05;;
26806;SDS011;14380;49.910;6.792;2022-09-09T14:25:23;4.20;;;0.90;;
26806;SDS011;14380;49.910;6.792;2022-09-09T14:27:49;2.45;;;0.50;;
26806;SDS011;14380;49.910;6.792;2022-09-09T14:30:16;4.43;;;0.90;;
26806;SDS011;14380;49.910;6.792;2022-09-09T14:32:43;3.95;;;0.70;;
26806;SDS011;14380;49.910;6.792;2022-09-09T14:35:09;3.15;;;0.77;;
26806;SDS011;14380;49.910;6.792;2022-09-09T14:37:37;2.30;;;0.60;;
26806;SDS011;14380;49.910;6.792;2022-09-09T14:40:04;1.70;;;0.30;;
26806;SDS011;14380;49.910;6.792;2022-09-09T14:42:33;2.72;;;0.60;;
26806;SDS011;14380;49.910;6.792;2022-09-09T14:45:00;4.97;;;0.70;;
26806;SDS011;14380;49.910;6.792;2022-09-09T14:47:27;5.28;;;0.40;;
26806;SDS011;14380;49.910;6.792;2022-09-09T14:49:54;2.58;;;0.70;;
26806;SDS011;14380;49.910;6.792;2022-09-09T14:52:20;2.08;;;0.30;;
26806;SDS011;14380;49.910;6.792;2022-09-09T14:54:47;3.42;;;1.02;;
26806;SDS011;14380;49.910;6.792;2022-09-09T14:57:15;3.17;;;0.50;;
26806;SDS011;14380;49.910;6.792;2022-09-09T14:59:43;3.92;;;0.50;;
26806;SDS011;14380;49.910;6.792;2022-09-09T15:02:10;4.50;;;0.40;;
26806;SDS011;14380;49.910;6.792;2022-09-09T15:04:38;6.53;;;0.50;;
26806;SDS011;14380;49.910;6.792;2022-09-09T15:07:04;3.35;;;0.60;;
26806;SDS011;14380;49.910;6.792;2022-09-09T15:09:31;8.98;;;0.80;;
26806;SDS011;14380;49.910;6.792;2022-09-09T15:11:58;4.03;;;0.70;;
26806;SDS011;14380;49.910;6.792;2022-09-09T15:14:25;4.20;;;0.52;;
26806;SDS011;14380;49.910;6.792;2022-09-09T15:16:54;4.70;;;0.60;;
26806;SDS011;14380;49.910;6.792;2022-09-09T15:19:20;3.38;;;0.77;;
26806;SDS011;14380;49.910;6.792;2022-09-09T15:21:47;2.55;;;0.70;;
26806;SDS011;14380;49.910;6.792;2022-09-09T15:24:14;4.53;;;0.82;;
26806;SDS011;14380;49.910;6.792;2022-09-09T15:26:41;3.85;;;0.68;;
26806;SDS011;14380;49.910;6.792;2022-09-09T15:29:07;3.55;;;0.60;;
26806;SDS011;14380;49.910;6.792;2022-09-09T15:31:35;4.63;;;0.57;;